sensor_id;sensor_type;location;lat;lon;timestamp;pressure;altitude;pressure_sealevel;temperature;humidity
57094;BME280;42970;50.996;3.706;2024-03-29T00:00:22;113162.81;;;-146.65;65.86
57094;BME280;42970;50.996;3.706;2024-03-29T00:02:48;113162.81;;;-146.65;65.74
57094;BME280;42970;50.996;3.706;2024-03-29T00:05:13;113162.81;;;-146.65;65.70
57094;BME280;42970;50.996;3.706;2024-03-29T00:07:39;113162.81;;;-146.65;65.32
57094;BME280;42970;50.996;3.706;2024-03-29T00:10:04;113162.81;;;-146.65;65.63
57094;BME280;42970;50.996;3.706;2024-03-29T00:12:30;113162.81;;;-146.65;65.19
57094;BME280;42970;50.996;3.706;2024-03-29T00:14:55;113162.81;;;-146.65;64.80
57094;BME280;42970;50.996;3.706;2024-03-29T00:17:21;113162.81;;;-146.65;64.92
57094;BME280;42970;50.996;3.706;2024-03-29T00:19:47;113162.81;;;-146.65;64.40
57094;BME280;42970;50.996;3.706;2024-03-29T00:22:12;113162.81;;;-146.65;64.30
57094;BME280;42970;50.996;3.706;2024-03-29T00:24:38;113162.81;;;-146.65;64.46
57094;BME280;42970;50.996;3.706;2024-03-29T00:27:03;113162.81;;;-146.65;64.16
57094;BME280;42970;50.996;3.706;2024-03-29T00:29:29;113162.81;;;-146.65;64.25
57094;BME280;42970;50.996;3.706;2024-03-29T00:31:55;113162.81;;;-146.65;64.19
57094;BME280;42970;50.996;3.706;2024-03-29T00:34:20;113162.81;;;-146.65;64.20
57094;BME280;42970;50.996;3.706;2024-03-29T00:36:46;113162.81;;;-146.65;63.98
57094;BME280;42970;50.996;3.706;2024-03-29T00:39:11;113162.81;;;-146.65;64.07
57094;BME280;42970;50.996;3.706;2024-03-29T00:41:37;113162.81;;;-146.65;63.51
57094;BME280;42970;50.996;3.706;2024-03-29T00:44:03;113162.81;;;-146.65;63.32
57094;BME280;42970;50.996;3.706;2024-03-29T00:46:28;113162.81;;;-146.65;63.11
57094;BME280;42970;50.996;3.706;2024-03-29T00:48:54;113162.81;;;-146.65;63.06
57094;BME280;42970;50.996;3.706;2024-03-29T00:51:19;113162.81;;;-146.65;63.50
57094;BME280;42970;50.996;3.706;2024-03-29T00:53:45;113162.81;;;-146.65;63.02
57094;BME280;42970;50.996;3.706;2024-03-29T00:56:10;113162.81;;;-146.65;62.79
57094;BME280;42970;50.996;3.706;2024-03-29T00:58:36;113162.81;;;-146.65;63.28
57094;BME280;42970;50.996;3.706;2024-03-29T01:01:01;113162.81;;;-146.65;63.36
57094;BME280;42970;50.996;3.706;2024-03-29T01:03:26;113162.81;;;-146.65;63.29
57094;BME280;42970;50.996;3.706;2024-03-29T01:05:56;113162.81;;;-146.65;62.94
57094;BME280;42970;50.996;3.706;2024-03-29T01:08:21;113162.81;;;-146.65;62.83
57094;BME280;42970;50.996;3.706;2024-03-29T01:10:48;113162.81;;;-146.65;62.14
57094;BME280;42970;50.996;3.706;2024-03-29T01:13:14;113162.81;;;-146.65;62.27
57094;BME280;42970;50.996;3.706;2024-03-29T01:15:39;113162.81;;;-146.65;62.43
57094;BME280;42970;50.996;3.706;2024-03-29T01:18:05;113162.81;;;-146.65;62.43
57094;BME280;42970;50.996;3.706;2024-03-29T01:20:30;113162.81;;;-146.65;62.01
57094;BME280;42970;50.996;3.706;2024-03-29T01:22:56;113162.81;;;-146.65;61.87
57094;BME280;42970;50.996;3.706;2024-03-29T01:25:21;113162.81;;;-146.65;61.92
57094;BME280;42970;50.996;3.706;2024-03-29T01:27:46;113162.81;;;-146.65;61.00
57094;BME280;42970;50.996;3.706;2024-03-29T01:30:12;113162.81;;;-146.65;60.70
57094;BME280;42970;50.996;3.706;2024-03-29T01:32:37;113162.81;;;-146.65;60.80
57094;BME280;42970;50.996;3.706;2024-03-29T01:35:04;113162.81;;;-146.65;61.20
57094;BME280;42970;50.996;3.706;2024-03-29T01:37:29;113162.81;;;-146.65;60.98
57094;BME280;42970;50.996;3.706;2024-03-29T01:39:56;113162.81;;;-146.65;61.17
57094;BME280;42970;50.996;3.706;2024-03-29T01:42:21;113162.81;;;-146.65;61.40
57094;BME280;42970;50.996;3.706;2024-03-29T01:44:47;113162.81;;;-146.65;61.40
57094;BME280;42970;50.996;3.706;2024-03-29T01:47:12;113162.81;;;-146.65;61.58
57094;BME280;42970;50.996;3.706;2024-03-29T01:49:39;113162.81;;;-146.65;61.76
57094;BME280;42970;50.996;3.706;2024-03-29T01:52:05;113162.81;;;-146.65;61.24
57094;BME280;42970;50.996;3.706;2024-03-29T01:54:31;113162.81;;;-146.65;61.73
57094;BME280;42970;50.996;3.706;2024-03-29T01:56:57;113162.81;;;-146.65;62.06
57094;BME280;42970;50.996;3.706;2024-03-29T01:59:23;113162.81;;;-146.65;61.94
57094;BME280;42970;50.996;3.706;2024-03-29T02:01:50;113162.81;;;-146.65;62.62
57094;BME280;42970;50.996;3.706;2024-03-29T02:04:15;113162.81;;;-146.65;62.13
57094;BME280;42970;50.996;3.706;2024-03-29T02:06:41;113162.81;;;-146.65;61.89
57094;BME280;42970;50.996;3.706;2024-03-29T02:09:07;113162.81;;;-146.65;62.53
57094;BME280;42970;50.996;3.706;2024-03-29T02:11:33;113162.81;;;-146.65;62.13
57094;BME280;42970;50.996;3.706;2024-03-29T02:14:00;113162.81;;;-146.65;61.88
57094;BME280;42970;50.996;3.706;2024-03-29T02:16:26;113162.81;;;-146.65;62.47
57094;BME280;42970;50.996;3.706;2024-03-29T02:18:52;113162.81;;;-146.65;62.72
57094;BME280;42970;50.996;3.706;2024-03-29T02:21:17;113162.81;;;-146.65;62.92
57094;BME280;42970;50.996;3.706;2024-03-29T02:23:47;113162.81;;;-146.65;63.31
57094;BME280;42970;50.996;3.706;2024-03-29T02:26:15;113162.81;;;-146.65;63.56
57094;BME280;42970;50.996;3.706;2024-03-29T02:28:41;113162.81;;;-146.65;63.99
57094;BME280;42970;50.996;3.706;2024-03-29T02:31:06;113162.81;;;-146.65;64.96
57094;BME280;42970;50.996;3.706;2024-03-29T02:33:33;113162.81;;;-146.65;65.43
57094;BME280;42970;50.996;3.706;2024-03-29T02:35:58;113162.81;;;-146.65;65.04
57094;BME280;42970;50.996;3.706;2024-03-29T02:38:24;113162.81;;;-146.65;65.93
57094;BME280;42970;50.996;3.706;2024-03-29T02:40:49;113162.81;;;-146.65;66.75
57094;BME280;42970;50.996;3.706;2024-03-29T02:43:14;113162.81;;;-146.65;68.26
57094;BME280;42970;50.996;3.706;2024-03-29T02:45:40;113162.81;;;-146.65;69.90
57094;BME280;42970;50.996;3.706;2024-03-29T02:48:06;113162.81;;;-146.65;74.40
57094;BME280;42970;50.996;3.706;2024-03-29T02:50:31;113162.81;;;-146.65;78.71
57094;BME280;42970;50.996;3.706;2024-03-29T02:52:57;113162.81;;;-146.65;83.63
57094;BME280;42970;50.996;3.706;2024-03-29T02:55:22;113162.81;;;-146.65;87.77
57094;BME280;42970;50.996;3.706;2024-03-29T02:57:47;113162.81;;;-146.65;92.04
57094;BME280;42970;50.996;3.706;2024-03-29T03:00:13;113162.81;;;-146.65;93.87
57094;BME280;42970;50.996;3.706;2024-03-29T03:02:39;113162.81;;;-146.65;94.97
57094;BME280;42970;50.996;3.706;2024-03-29T03:05:05;113162.81;;;-146.65;95.59
57094;BME280;42970;50.996;3.706;2024-03-29T03:07:31;113162.81;;;-146.65;96.95
57094;BME280;42970;50.996;3.706;2024-03-29T03:10:15;113162.81;;;-146.65;95.90
57094;BME280;42970;50.996;3.706;2024-03-29T03:12:59;113162.81;;;-146.65;96.66
57094;BME280;42970;50.996;3.706;2024-03-29T03:15:24;113162.81;;;-146.65;97.62
57094;BME280;42970;50.996;3.706;2024-03-29T03:17:50;113162.81;;;-146.65;98.51
57094;BME280;42970;50.996;3.706;2024-03-29T03:20:15;113162.81;;;-146.65;99.20
57094;BME280;42970;50.996;3.706;2024-03-29T03:22:41;113162.81;;;-146.65;99.04
57094;BME280;42970;50.996;3.706;2024-03-29T03:25:07;113162.81;;;-146.65;98.73
57094;BME280;42970;50.996;3.706;2024-03-29T03:27:32;113162.81;;;-146.65;99.56
57094;BME280;42970;50.996;3.706;2024-03-29T03:29:58;113162.81;;;-146.65;99.19
57094;BME280;42970;50.996;3.706;2024-03-29T03:32:23;113162.81;;;-146.65;99.13
57094;BME280;42970;50.996;3.706;2024-03-29T03:34:48;113162.81;;;-146.65;99.78
57094;BME280;42970;50.996;3.706;2024-03-29T03:37:14;113162.81;;;-146.65;100.00
57094;BME280;42970;50.996;3.706;2024-03-29T03:39:39;113162.81;;;-146.65;100.00
57094;BME280;42970;50.996;3.706;2024-03-29T03:42:04;113162.81;;;-146.65;100.00
57094;BME280;42970;50.996;3.706;2024-03-29T03:44:30;113162.81;;;-146.65;100.00
57094;BME280;42970;50.996;3.706;2024-03-29T03:46:55;113162.81;;;-146.65;100.00
57094;BME280;42970;50.996;3.706;2024-03-29T03:49:21;113162.81;;;-146.65;100.00
57094;BME280;42970;50.996;3.706;2024-03-29T03:51:46;113162.81;;;-146.65;100.00
57094;BME280;42970;50.996;3.706;2024-03-29T03:54:12;113162.81;;;-146.65;100.00
57094;BME280;42970;50.996;3.706;2024-03-29T03:56:37;113162.81;;;-146.65;100.00
57094;BME280;42970;50.996;3.706;2024-03-29T03:59:02;113162.81;;;-146.65;100.00
57094;BME280;42970;50.996;3.706;2024-03-29T04:01:28;113162.81;;;-146.65;100.00
57094;BME280;42970;50.996;3.706;2024-03-29T04:03:53;113162.81;;;-146.65;100.00
57094;BME280;42970;50.996;3.706;2024-03-29T04:06:19;113162.81;;;-146.65;100.00
57094;BME280;42970;50.996;3.706;2024-03-29T04:08:44;113162.81;;;-146.65;100.00
57094;BME280;42970;50.996;3.706;2024-03-29T04:11:10;113162.81;;;-146.65;100.00
57094;BME280;42970;50.996;3.706;2024-03-29T04:13:35;113162.81;;;-146.65;100.00
57094;BME280;42970;50.996;3.706;2024-03-29T04:16:04;113162.81;;;-146.65;100.00
57094;BME280;42970;50.996;3.706;2024-03-29T04:18:30;113162.81;;;-146.65;100.00
57094;BME280;42970;50.996;3.706;2024-03-29T04:21:01;113162.81;;;-146.65;100.00
57094;BME280;42970;50.996;3.706;2024-03-29T04:23:27;113162.81;;;-146.65;100.00
57094;BME280;42970;50.996;3.706;2024-03-29T04:25:57;113162.81;;;-146.65;100.00
57094;BME280;42970;50.996;3.706;2024-03-29T04:28:23;113162.81;;;-146.65;100.00
57094;BME280;42970;50.996;3.706;2024-03-29T04:30:58;113162.81;;;-146.65;100.00
57094;BME280;42970;50.996;3.706;2024-03-29T04:33:24;113162.81;;;-146.65;100.00
57094;BME280;42970;50.996;3.706;2024-03-29T04:35:56;113162.81;;;-146.65;100.00
57094;BME280;42970;50.996;3.706;2024-03-29T04:38:22;113162.81;;;-146.65;100.00
57094;BME280;42970;50.996;3.706;2024-03-29T04:40:48;113162.81;;;-146.65;100.00
57094;BME280;42970;50.996;3.706;2024-03-29T04:43:14;113162.81;;;-146.65;100.00
57094;BME280;42970;50.996;3.706;2024-03-29T04:45:39;113162.81;;;-146.65;100.00
57094;BME280;42970;50.996;3.706;2024-03-29T04:48:05;113162.81;;;-146.65;100.00
57094;BME280;42970;50.996;3.706;2024-03-29T04:50:31;113162.81;;;-146.65;100.00
57094;BME280;42970;50.996;3.706;2024-03-29T04:52:56;113162.81;;;-146.65;100.00
57094;BME280;42970;50.996;3.706;2024-03-29T04:55:21;113162.81;;;-146.65;100.00
57094;BME280;42970;50.996;3.706;2024-03-29T04:57:47;113162.81;;;-146.65;100.00
57094;BME280;42970;50.996;3.706;2024-03-29T05:00:12;113162.81;;;-146.65;100.00
57094;BME280;42970;50.996;3.706;2024-03-29T05:02:38;113162.81;;;-146.65;100.00
57094;BME280;42970;50.996;3.706;2024-03-29T05:05:03;113162.81;;;-146.65;100.00
57094;BME280;42970;50.996;3.706;2024-03-29T05:07:30;113162.81;;;-146.65;100.00
57094;BME280;42970;50.996;3.706;2024-03-29T05:09:55;113162.81;;;-146.65;100.00
57094;BME280;42970;50.996;3.706;2024-03-29T05:12:21;113162.81;;;-146.65;100.00
57094;BME280;42970;50.996;3.706;2024-03-29T05:14:46;113162.81;;;-146.65;100.00
57094;BME280;42970;50.996;3.706;2024-03-29T05:17:13;113162.81;;;-146.65;100.00
57094;BME280;42970;50.996;3.706;2024-03-29T05:19:39;113162.81;;;-146.65;100.00
57094;BME280;42970;50.996;3.706;2024-03-29T05:22:04;113162.81;;;-146.65;100.00
57094;BME280;42970;50.996;3.706;2024-03-29T05:24:29;113162.81;;;-146.65;100.00
57094;BME280;42970;50.996;3.706;2024-03-29T05:26:55;113162.81;;;-146.65;100.00
57094;BME280;42970;50.996;3.706;2024-03-29T05:29:20;113162.81;;;-146.65;100.00
57094;BME280;42970;50.996;3.706;2024-03-29T05:31:46;113162.81;;;-146.65;100.00
57094;BME280;42970;50.996;3.706;2024-03-29T05:34:11;113162.81;;;-146.65;100.00
57094;BME280;42970;50.996;3.706;2024-03-29T05:36:36;113162.81;;;-146.65;100.00
57094;BME280;42970;50.996;3.706;2024-03-29T05:39:02;113162.81;;;-146.65;100.00
57094;BME280;42970;50.996;3.706;2024-03-29T05:41:28;113162.81;;;-146.65;100.00
57094;BME280;42970;50.996;3.706;2024-03-29T05:43:55;113162.81;;;-146.65;100.00
57094;BME280;42970;50.996;3.706;2024-03-29T05:46:21;113162.81;;;-146.65;100.00
57094;BME280;42970;50.996;3.706;2024-03-29T05:48:46;113162.81;;;-146.65;100.00
57094;BME280;42970;50.996;3.706;2024-03-29T05:51:12;113162.81;;;-146.65;100.00
57094;BME280;42970;50.996;3.706;2024-03-29T05:53:37;113162.81;;;-146.65;100.00
57094;BME280;42970;50.996;3.706;2024-03-29T05:56:03;113162.81;;;-146.65;100.00
57094;BME280;42970;50.996;3.706;2024-03-29T05:58:29;113162.81;;;-146.65;100.00
57094;BME280;42970;50.996;3.706;2024-03-29T06:00:55;113162.81;;;-146.65;100.00
57094;BME280;42970;50.996;3.706;2024-03-29T06:03:20;113162.81;;;-146.65;100.00
57094;BME280;42970;50.996;3.706;2024-03-29T06:05:45;113162.81;;;-146.65;100.00
57094;BME280;42970;50.996;3.706;2024-03-29T06:08:12;113162.81;;;-146.65;100.00
57094;BME280;42970;50.996;3.706;2024-03-29T06:10:38;113162.81;;;-146.65;100.00
57094;BME280;42970;50.996;3.706;2024-03-29T06:13:04;113162.81;;;-146.65;100.00
57094;BME280;42970;50.996;3.706;2024-03-29T06:15:33;113162.81;;;-146.65;100.00
57094;BME280;42970;50.996;3.706;2024-03-29T06:18:18;113162.81;;;-146.65;100.00
57094;BME280;42970;50.996;3.706;2024-03-29T06:20:45;113162.81;;;-146.65;100.00
57094;BME280;42970;50.996;3.706;2024-03-29T06:23:10;113162.81;;;-146.65;100.00
57094;BME280;42970;50.996;3.706;2024-03-29T06:25:35;113162.81;;;-146.65;100.00
57094;BME280;42970;50.996;3.706;2024-03-29T06:28:01;113162.81;;;-146.65;100.00
57094;BME280;42970;50.996;3.706;2024-03-29T06:30:26;113162.81;;;-146.65;100.00
57094;BME280;42970;50.996;3.706;2024-03-29T06:32:52;113162.81;;;-146.65;100.00
57094;BME280;42970;50.996;3.706;2024-03-29T06:35:17;113162.81;;;-146.65;100.00
57094;BME280;42970;50.996;3.706;2024-03-29T06:37:45;113162.81;;;-146.65;100.00
57094;BME280;42970;50.996;3.706;2024-03-29T06:40:11;113162.81;;;-146.65;100.00
57094;BME280;42970;50.996;3.706;2024-03-29T06:42:36;113162.81;;;-146.65;100.00
57094;BME280;42970;50.996;3.706;2024-03-29T06:45:02;113162.81;;;-146.65;100.00
57094;BME280;42970;50.996;3.706;2024-03-29T06:47:27;113162.81;;;-146.65;100.00
57094;BME280;42970;50.996;3.706;2024-03-29T06:49:53;113162.81;;;-146.65;100.00
57094;BME280;42970;50.996;3.706;2024-03-29T06:52:18;113162.81;;;-146.65;100.00
57094;BME280;42970;50.996;3.706;2024-03-29T06:54:44;113162.81;;;-146.65;100.00
57094;BME280;42970;50.996;3.706;2024-03-29T06:57:09;113162.81;;;-146.65;100.00
57094;BME280;42970;50.996;3.706;2024-03-29T06:59:39;113162.81;;;-146.65;100.00
57094;BME280;42970;50.996;3.706;2024-03-29T07:02:05;113162.81;;;-146.65;100.00
57094;BME280;42970;50.996;3.706;2024-03-29T07:04:31;113162.81;;;-146.65;100.00
57094;BME280;42970;50.996;3.706;2024-03-29T07:06:56;113162.81;;;-146.65;100.00
57094;BME280;42970;50.996;3.706;2024-03-29T07:09:22;113162.81;;;-146.65;100.00
57094;BME280;42970;50.996;3.706;2024-03-29T07:11:51;113162.81;;;-146.65;100.00
57094;BME280;42970;50.996;3.706;2024-03-29T07:14:18;113162.81;;;-146.65;100.00
57094;BME280;42970;50.996;3.706;2024-03-29T07:16:44;113162.81;;;-146.65;100.00
57094;BME280;42970;50.996;3.706;2024-03-29T07:19:10;113162.81;;;-146.65;100.00
57094;BME280;42970;50.996;3.706;2024-03-29T07:21:44;113162.81;;;-146.65;100.00
57094;BME280;42970;50.996;3.706;2024-03-29T07:24:09;113162.81;;;-146.65;100.00
57094;BME280;42970;50.996;3.706;2024-03-29T07:26:35;113162.81;;;-146.65;100.00
57094;BME280;42970;50.996;3.706;2024-03-29T07:29:00;113162.81;;;-146.65;100.00
57094;BME280;42970;50.996;3.706;2024-03-29T07:31:26;113162.81;;;-146.65;100.00
57094;BME280;42970;50.996;3.706;2024-03-29T07:33:52;113162.81;;;-146.65;100.00
57094;BME280;42970;50.996;3.706;2024-03-29T07:36:17;113162.81;;;-146.65;100.00
57094;BME280;42970;50.996;3.706;2024-03-29T07:38:43;113162.81;;;-146.65;100.00
57094;BME280;42970;50.996;3.706;2024-03-29T07:41:11;113162.81;;;-146.65;100.00
57094;BME280;42970;50.996;3.706;2024-03-29T07:43:54;113162.81;;;-146.65;100.00
57094;BME280;42970;50.996;3.706;2024-03-29T07:46:28;113162.81;;;-146.65;100.00
57094;BME280;42970;50.996;3.706;2024-03-29T07:48:54;113162.81;;;-146.65;100.00
57094;BME280;42970;50.996;3.706;2024-03-29T07:51:20;113162.81;;;-146.65;100.00
57094;BME280;42970;50.996;3.706;2024-03-29T07:53:45;113162.81;;;-146.65;100.00
57094;BME280;42970;50.996;3.706;2024-03-29T07:56:11;113162.81;;;-146.65;100.00
57094;BME280;42970;50.996;3.706;2024-03-29T07:58:36;113162.81;;;-146.65;100.00
57094;BME280;42970;50.996;3.706;2024-03-29T08:01:02;113162.81;;;-146.65;100.00
57094;BME280;42970;50.996;3.706;2024-03-29T08:03:27;113162.81;;;-146.65;100.00
57094;BME280;42970;50.996;3.706;2024-03-29T08:06:02;113162.81;;;-146.65;100.00
57094;BME280;42970;50.996;3.706;2024-03-29T08:08:32;113162.81;;;-146.65;100.00
57094;BME280;42970;50.996;3.706;2024-03-29T08:10:58;113162.81;;;-146.65;100.00
57094;BME280;42970;50.996;3.706;2024-03-29T08:13:25;113162.81;;;-146.65;100.00
57094;BME280;42970;50.996;3.706;2024-03-29T08:15:59;113162.81;;;-146.65;100.00
57094;BME280;42970;50.996;3.706;2024-03-29T08:18:26;113162.81;;;-146.65;100.00
57094;BME280;42970;50.996;3.706;2024-03-29T08:20:52;113162.81;;;-146.65;100.00
57094;BME280;42970;50.996;3.706;2024-03-29T08:23:19;113162.81;;;-146.65;100.00
57094;BME280;42970;50.996;3.706;2024-03-29T08:25:44;113162.81;;;-146.65;100.00
57094;BME280;42970;50.996;3.706;2024-03-29T08:28:10;113162.81;;;-146.65;100.00
57094;BME280;42970;50.996;3.706;2024-03-29T08:30:36;113162.81;;;-146.65;100.00
57094;BME280;42970;50.996;3.706;2024-03-29T08:33:02;113162.81;;;-146.65;100.00
57094;BME280;42970;50.996;3.706;2024-03-29T08:35:29;113162.81;;;-146.65;100.00
57094;BME280;42970;50.996;3.706;2024-03-29T08:37:54;113162.81;;;-146.65;100.00
57094;BME280;42970;50.996;3.706;2024-03-29T08:40:20;113162.81;;;-146.65;100.00
57094;BME280;42970;50.996;3.706;2024-03-29T08:42:45;113162.81;;;-146.65;100.00
57094;BME280;42970;50.996;3.706;2024-03-29T08:45:10;113162.81;;;-146.65;100.00
57094;BME280;42970;50.996;3.706;2024-03-29T08:47:37;113162.81;;;-146.65;100.00
57094;BME280;42970;50.996;3.706;2024-03-29T08:50:02;113162.81;;;-146.65;100.00
57094;BME280;42970;50.996;3.706;2024-03-29T08:52:29;113162.81;;;-146.65;100.00
57094;BME280;42970;50.996;3.706;2024-03-29T08:54:54;113162.81;;;-146.65;100.00
57094;BME280;42970;50.996;3.706;2024-03-29T08:57:20;113162.81;;;-146.65;100.00
57094;BME280;42970;50.996;3.706;2024-03-29T08:59:45;113162.81;;;-146.65;100.00
57094;BME280;42970;50.996;3.706;2024-03-29T09:02:10;113162.81;;;-146.65;100.00
57094;BME280;42970;50.996;3.706;2024-03-29T09:04:36;113162.81;;;-146.65;100.00
57094;BME280;42970;50.996;3.706;2024-03-29T09:07:02;113162.81;;;-146.65;100.00
57094;BME280;42970;50.996;3.706;2024-03-29T09:09:29;113162.81;;;-146.65;100.00
57094;BME280;42970;50.996;3.706;2024-03-29T09:11:54;113162.81;;;-146.65;100.00
57094;BME280;42970;50.996;3.706;2024-03-29T09:14:20;113162.81;;;-146.65;100.00
57094;BME280;42970;50.996;3.706;2024-03-29T09:16:45;113162.81;;;-146.65;100.00
57094;BME280;42970;50.996;3.706;2024-03-29T09:19:13;113162.81;;;-146.65;100.00
57094;BME280;42970;50.996;3.706;2024-03-29T09:21:39;113162.81;;;-146.65;100.00
57094;BME280;42970;50.996;3.706;2024-03-29T09:24:05;113162.81;;;-146.65;100.00
57094;BME280;42970;50.996;3.706;2024-03-29T09:26:31;113162.81;;;-146.65;100.00
57094;BME280;42970;50.996;3.706;2024-03-29T09:28:56;113162.81;;;-146.65;100.00
57094;BME280;42970;50.996;3.706;2024-03-29T09:31:22;113162.81;;;-146.65;97.82
57094;BME280;42970;50.996;3.706;2024-03-29T09:33:47;113162.81;;;-146.65;97.94
57094;BME280;42970;50.996;3.706;2024-03-29T09:36:19;113162.81;;;-146.65;97.37
57094;BME280;42970;50.996;3.706;2024-03-29T09:38:44;113162.81;;;-146.65;96.50
57094;BME280;42970;50.996;3.706;2024-03-29T09:41:17;113162.81;;;-146.65;96.75
57094;BME280;42970;50.996;3.706;2024-03-29T09:43:47;113162.81;;;-146.65;95.27
57094;BME280;42970;50.996;3.706;2024-03-29T09:46:14;113162.81;;;-146.65;95.00
57094;BME280;42970;50.996;3.706;2024-03-29T09:48:44;113162.81;;;-146.65;94.69
57094;BME280;42970;50.996;3.706;2024-03-29T09:51:12;113162.81;;;-146.65;92.59
57094;BME280;42970;50.996;3.706;2024-03-29T09:53:43;113162.81;;;-146.65;87.57
57094;BME280;42970;50.996;3.706;2024-03-29T09:56:09;113162.81;;;-146.65;83.48
57094;BME280;42970;50.996;3.706;2024-03-29T09:58:36;113162.81;;;-146.65;80.85
57094;BME280;42970;50.996;3.706;2024-03-29T10:01:03;113162.81;;;-146.65;75.76
57094;BME280;42970;50.996;3.706;2024-03-29T10:03:30;113162.81;;;-146.65;70.98
57094;BME280;42970;50.996;3.706;2024-03-29T10:05:57;113162.81;;;-146.65;73.54
57094;BME280;42970;50.996;3.706;2024-03-29T10:08:25;113162.81;;;-146.65;68.77
57094;BME280;42970;50.996;3.706;2024-03-29T10:10:52;113162.81;;;-146.65;68.80
57094;BME280;42970;50.996;3.706;2024-03-29T10:13:19;113162.81;;;-146.65;66.71
57094;BME280;42970;50.996;3.706;2024-03-29T10:15:44;113162.81;;;-146.65;63.95
57094;BME280;42970;50.996;3.706;2024-03-29T10:18:14;113162.81;;;-146.65;64.62
57094;BME280;42970;50.996;3.706;2024-03-29T10:20:39;113162.81;;;-146.65;67.01
57094;BME280;42970;50.996;3.706;2024-03-29T10:23:05;113162.81;;;-146.65;67.83
57094;BME280;42970;50.996;3.706;2024-03-29T10:25:32;113162.81;;;-146.65;69.89
57094;BME280;42970;50.996;3.706;2024-03-29T10:28:01;113162.81;;;-146.65;69.23
57094;BME280;42970;50.996;3.706;2024-03-29T10:30:28;113162.81;;;-146.65;71.33
57094;BME280;42970;50.996;3.706;2024-03-29T10:32:56;113162.81;;;-146.65;70.98
57094;BME280;42970;50.996;3.706;2024-03-29T10:35:21;113162.81;;;-146.65;71.29
57094;BME280;42970;50.996;3.706;2024-03-29T10:37:47;113162.81;;;-146.65;71.14
57094;BME280;42970;50.996;3.706;2024-03-29T10:40:12;113162.81;;;-146.65;70.67
57094;BME280;42970;50.996;3.706;2024-03-29T10:42:42;113162.81;;;-146.65;70.67
57094;BME280;42970;50.996;3.706;2024-03-29T10:45:10;113162.81;;;-146.65;69.06
57094;BME280;42970;50.996;3.706;2024-03-29T10:47:35;113162.81;;;-146.65;68.49
57094;BME280;42970;50.996;3.706;2024-03-29T10:50:02;113162.81;;;-146.65;65.70
57094;BME280;42970;50.996;3.706;2024-03-29T10:52:31;113162.81;;;-146.65;66.28
57094;BME280;42970;50.996;3.706;2024-03-29T10:54:56;113162.81;;;-146.65;65.06
57094;BME280;42970;50.996;3.706;2024-03-29T10:57:27;113162.81;;;-146.65;64.88
57094;BME280;42970;50.996;3.706;2024-03-29T11:00:08;113162.81;;;-146.65;63.84
57094;BME280;42970;50.996;3.706;2024-03-29T11:05:29;113162.81;;;-146.65;58.04
57094;BME280;42970;50.996;3.706;2024-03-29T11:07:56;113162.81;;;-146.65;57.31
57094;BME280;42970;50.996;3.706;2024-03-29T11:13:09;113162.81;;;-146.65;59.45
57094;BME280;42970;50.996;3.706;2024-03-29T11:15:38;113162.81;;;-146.65;60.61
57094;BME280;42970;50.996;3.706;2024-03-29T11:18:07;113162.81;;;-146.65;60.16
57094;BME280;42970;50.996;3.706;2024-03-29T11:20:34;113162.81;;;-146.65;57.26
57094;BME280;42970;50.996;3.706;2024-03-29T11:23:09;113162.81;;;-146.65;59.28
57094;BME280;42970;50.996;3.706;2024-03-29T11:25:43;113162.81;;;-146.65;59.03
57094;BME280;42970;50.996;3.706;2024-03-29T11:28:13;113162.81;;;-146.65;61.23
57094;BME280;42970;50.996;3.706;2024-03-29T11:30:43;113162.81;;;-146.65;61.59
57094;BME280;42970;50.996;3.706;2024-03-29T11:33:31;113162.81;;;-146.65;61.49
57094;BME280;42970;50.996;3.706;2024-03-29T11:35:58;113162.81;;;-146.65;62.30
57094;BME280;42970;50.996;3.706;2024-03-29T11:38:47;113162.81;;;-146.65;59.79
57094;BME280;42970;50.996;3.706;2024-03-29T11:41:18;113162.81;;;-146.65;60.46
57094;BME280;42970;50.996;3.706;2024-03-29T11:43:44;113162.81;;;-146.65;58.75
57094;BME280;42970;50.996;3.706;2024-03-29T11:46:12;113162.81;;;-146.65;58.20
57094;BME280;42970;50.996;3.706;2024-03-29T11:48:38;113162.81;;;-146.65;56.02
57094;BME280;42970;50.996;3.706;2024-03-29T11:51:06;113162.81;;;-146.65;55.99
57094;BME280;42970;50.996;3.706;2024-03-29T11:53:32;113162.81;;;-146.65;57.10
57094;BME280;42970;50.996;3.706;2024-03-29T11:55:58;113162.81;;;-146.65;56.56
57094;BME280;42970;50.996;3.706;2024-03-29T11:58:25;113162.81;;;-146.65;53.98
57094;BME280;42970;50.996;3.706;2024-03-29T12:00:52;113162.81;;;-146.65;55.14
57094;BME280;42970;50.996;3.706;2024-03-29T12:03:19;113162.81;;;-146.65;56.32
57094;BME280;42970;50.996;3.706;2024-03-29T12:05:49;113162.81;;;-146.65;54.43
57094;BME280;42970;50.996;3.706;2024-03-29T12:08:16;113162.81;;;-146.65;54.29
57094;BME280;42970;50.996;3.706;2024-03-29T12:10:41;113162.81;;;-146.65;56.08
57094;BME280;42970;50.996;3.706;2024-03-29T12:13:07;113162.81;;;-146.65;57.53
57094;BME280;42970;50.996;3.706;2024-03-29T12:15:34;113162.81;;;-146.65;57.84
57094;BME280;42970;50.996;3.706;2024-03-29T12:18:04;113162.81;;;-146.65;54.62
57094;BME280;42970;50.996;3.706;2024-03-29T12:20:37;113162.81;;;-146.65;51.87
57094;BME280;42970;50.996;3.706;2024-03-29T12:23:07;113162.81;;;-146.65;51.81
57094;BME280;42970;50.996;3.706;2024-03-29T12:25:36;113162.81;;;-146.65;52.64
57094;BME280;42970;50.996;3.706;2024-03-29T12:28:02;113162.81;;;-146.65;53.18